Terminal Aerodrome Forecast
Issued by NWS Cleveland, OH

Home | Current Version | Previous Version | Graphics & Text | Print | Product List | Glossary Off
Versions: 1 2 3 4 5 6 7 8 9 10 11 12 13 14 15 16 17 18 19 20 21 22

418
FTUS41 KCLE 191720
TAFTOL
TAF
KTOL 191720Z 1918/2018 30012G18KT P6SM SCT030
      TEMPO 1918/1920 BKN030
     FM192200 29008KT P6SM FEW030 SCT120
     FM200000 28004KT P6SM FEW250
     FM201400 20004KT P6SM FEW250=

USA.gov is the U.S. government's official web portal to all federal, state and local government web resources and services.